Time;durP1;ratioP1;P1;durP2;ratioP2;P2;SDS_P1;SDS_P2;PMS_P1;PMS_P2;Temp;Humidity;BMP_temperature;BMP_pressure;BME280_temperature;BME280_humidity;BME280_pressure;Samples;Min_cycle;Max_cycle;Signal;HPM_P1;HPM_P2
2023/03/21 00:00:17;;;;;;;16.60;8.90;;;;;;;12.05;58.88;101130.59;685003;28;1336;-80
2023/03/21 00:00:38;;;;;;;15.50;9.05;;;;;;;11.95;58.51;101110.25;685827;28;1193;-80
2023/03/21 00:01:04;;;;;;;14.00;9.05;;;;;;;11.99;58.58;101117.34;688478;28;1240;-80
2023/03/21 00:01:25;;;;;;;14.25;9.13;;;;;;;12.00;58.80;101123.47;685746;28;1129;-80
2023/03/21 00:01:49;;;;;;;14.85;8.80;;;;;;;12.02;58.84;101122.66;685698;28;1285;-79
2023/03/21 00:02:10;;;;;;;14.95;8.52;;;;;;;11.99;58.72;101111.22;683189;29;1029;-79
2023/03/21 00:02:30;;;;;;;16.15;9.02;;;;;;;12.01;58.77;101126.13;688547;28;1303;-79
2023/03/21 00:02:51;;;;;;;14.38;9.40;;;;;;;11.92;58.86;101110.16;685386;28;1209;-80
2023/03/21 00:03:12;;;;;;;19.23;9.60;;;;;;;11.99;58.71;101117.34;685664;28;1309;-80
2023/03/21 00:03:33;;;;;;;19.00;9.13;;;;;;;11.99;58.70;101119.94;683265;29;1040;-80
2023/03/21 00:03:54;;;;;;;20.23;9.00;;;;;;;11.93;58.98;101101.50;678089;29;1117;-80
2023/03/21 00:04:15;;;;;;;17.25;9.43;;;;;;;11.91;59.01;101108.38;680540;29;1108;-79
2023/03/21 00:04:35;;;;;;;16.50;9.52;;;;;;;11.89;58.70;101112.69;683299;29;1089;-80
2023/03/21 00:04:56;;;;;;;16.23;9.55;;;;;;;11.91;58.88;101119.75;688439;28;1273;-79
2023/03/21 00:05:16;;;;;;;16.10;9.10;;;;;;;11.94;58.67;101111.09;685582;28;1341;-79
2023/03/21 00:05:41;;;;;;;23.23;9.32;;;;;;;11.94;58.45;101111.09;680463;29;1181;-79
2023/03/21 00:06:06;;;;;;;23.35;9.48;;;;;;;11.94;58.64;101111.09;685652;28;1962;-80
2023/03/21 00:06:27;;;;;;;20.10;9.48;;;;;;;12.00;58.50;101116.53;685764;28;1001;-80
2023/03/21 00:06:47;;;;;;;16.95;9.35;;;;;;;11.97;58.62;101105.09;685669;28;1225;-79
2023/03/21 00:07:08;;;;;;;15.60;8.97;;;;;;;12.02;58.73;101113.91;685664;28;1019;-79
2023/03/21 00:07:29;;;;;;;16.63;9.20;;;;;;;11.94;58.62;101105.88;688443;28;1477;-80
2023/03/21 00:07:58;;;;;;;19.90;9.80;;;;;;;11.99;58.57;101106.88;683074;28;1198;-80
2023/03/21 00:08:21;;;;;;;21.92;9.60;;;;;;;12.04;58.56;101110.50;685758;28;1017;-79
2023/03/21 00:08:41;;;;;;;19.95;9.32;;;;;;;12.03;58.71;101118.31;683075;29;858;-79
2023/03/21 00:09:02;;;;;;;16.13;8.93;;;;;;;12.01;58.52;101115.66;683080;28;1155;-80
2023/03/21 00:09:23;;;;;;;16.23;8.77;;;;;;;11.99;58.67;101106.00;683264;29;1010;-80
2023/03/21 00:09:44;;;;;;;15.67;8.73;;;;;;;12.00;58.34;101103.44;683219;29;1232;-79
2023/03/21 00:10:04;;;;;;;15.55;8.80;;;;;;;12.01;58.64;101105.22;682997;28;1122;-80
2023/03/21 00:10:25;;;;;;;14.82;9.20;;;;;;;12.02;58.39;101108.69;683100;29;1259;-80
2023/03/21 00:10:45;;;;;;;17.90;9.57;;;;;;;12.05;58.30;101117.50;683248;29;1231;-80
2023/03/21 00:11:09;;;;;;;17.02;9.52;;;;;;;11.98;58.50;101099.88;683136;29;1045;-79
2023/03/21 00:11:29;;;;;;;17.35;9.80;;;;;;;12.00;58.45;101106.06;683263;29;1182;-80
2023/03/21 00:11:50;;;;;;;13.87;9.40;;;;;;;11.99;58.31;101106.88;685802;28;1001;-80
2023/03/21 00:12:11;;;;;;;12.27;8.90;;;;;;;12.05;58.23;101100.94;688503;28;1059;-80
2023/03/21 00:12:36;;;;;;;11.80;9.00;;;;;;;12.06;58.41;101095.72;685762;28;1834;-79
2023/03/21 00:12:57;;;;;;;11.45;8.70;;;;;;;12.04;58.20;101100.03;685306;28;1060;-80
2023/03/21 00:13:19;;;;;;;17.02;9.13;;;;;;;12.09;58.09;101108.00;682607;29;1118;-79
2023/03/21 00:13:42;;;;;;;18.38;9.10;;;;;;;12.02;58.18;101101.75;681978;29;947;-80
2023/03/21 00:14:03;;;;;;;20.92;9.60;;;;;;;12.00;57.98;101095.59;683065;29;1033;-80
2023/03/21 00:14:24;;;;;;;16.02;9.60;;;;;;;12.04;58.38;101101.78;686000;28;1103;-80
2023/03/21 00:14:46;;;;;;;17.25;9.30;;;;;;;12.07;58.12;101107.09;684034;28;994;-80
2023/03/21 00:15:08;;;;;;;15.85;9.50;;;;;;;12.00;57.98;101095.59;685766;28;1304;-80
2023/03/21 00:15:29;;;;;;;13.30;9.00;;;;;;;12.03;58.37;101100.91;683016;29;1522;-79
2023/03/21 00:15:49;;;;;;;14.87;8.83;;;;;;;12.04;57.94;101096.56;685840;28;1268;-80
2023/03/21 00:16:16;;;;;;;16.77;8.98;;;;;;;12.06;58.13;101102.72;685733;28;1094;-80
2023/03/21 00:16:37;;;;;;;16.60;9.25;;;;;;;12.05;58.22;101095.72;685898;28;1139;-80
2023/03/21 00:16:57;;;;;;;14.23;9.33;;;;;;;12.04;58.18;101093.94;685498;28;1906;-80
2023/03/21 00:17:21;;;;;;;13.57;9.10;;;;;;;12.07;57.96;101096.63;683039;29;1067;-79
2023/03/21 00:17:43;;;;;;;12.60;9.10;;;;;;;12.06;58.06;101098.34;682993;29;1003;-79
2023/03/21 00:18:10;;;;;;;13.27;9.65;;;;;;;12.04;57.88;101089.59;683029;29;1028;-79
2023/03/21 00:18:31;;;;;;;15.45;9.80;;;;;;;12.04;58.16;101094.81;685771;28;1150;-79
2023/03/21 00:18:52;;;;;;;15.52;9.70;;;;;;;12.07;57.99;101097.50;683031;29;1320;-79
2023/03/21 00:19:37;;;;;;;15.05;9.18;;;;;;;12.10;58.08;101104.56;682946;29;1309;-79
2023/03/21 00:19:59;;;;;;;20.55;9.15;;;;;;;12.02;57.71;101088.66;685527;28;1124;-78
2023/03/21 00:20:22;;;;;;;15.35;9.20;;;;;;;12.06;57.77;101090.50;685752;28;998;-79
2023/03/21 00:20:45;;;;;;;14.10;9.60;;;;;;;12.18;57.67;101102.16;691079;28;1461;-80
2023/03/21 00:21:06;;;;;;;14.75;9.60;;;;;;;12.05;57.81;101086.13;685708;28;1179;-80
2023/03/21 00:21:31;;;;;;;14.57;9.52;;;;;;;12.05;57.75;101093.97;685745;28;1243;-80
2023/03/21 00:21:53;;;;;;;13.02;8.93;;;;;;;12.03;58.16;101087.81;683149;28;1167;-80
2023/03/21 00:22:13;;;;;;;12.93;8.88;;;;;;;12.02;57.86;101088.66;685707;28;1445;-79
2023/03/21 00:22:35;;;;;;;14.35;9.10;;;;;;;12.01;57.92;101089.50;682718;29;1239;-80
2023/03/21 00:22:56;;;;;;;16.35;9.70;;;;;;;12.02;57.72;101088.66;685639;28;1285;-79
2023/03/21 00:23:16;;;;;;;15.43;9.40;;;;;;;12.06;57.79;101090.50;685670;28;1125;-79
2023/03/21 00:23:37;;;;;;;14.00;9.38;;;;;;;12.04;57.53;101084.34;682944;29;1214;-80
2023/03/21 00:23:59;;;;;;;12.87;9.17;;;;;;;12.12;57.62;101100.28;685733;28;1269;-79
2023/03/21 00:24:21;;;;;;;17.48;9.18;;;;;;;12.10;57.75;101093.22;685678;28;1109;-79
2023/03/21 00:24:42;;;;;;;20.48;9.40;;;;;;;12.03;57.61;101087.81;688353;28;1304;-80
2023/03/21 00:25:03;;;;;;;20.60;9.60;;;;;;;12.00;57.49;101087.75;683076;29;1165;-79
2023/03/21 00:25:23;;;;;;;18.20;9.43;;;;;;;12.00;57.76;101082.50;683118;29;918;-80
2023/03/21 00:25:44;;;;;;;16.53;9.43;;;;;;;12.03;57.66;101081.69;683107;29;1184;-80
2023/03/21 00:26:05;;;;;;;14.63;9.02;;;;;;;12.05;57.72;101090.47;685575;28;1216;-80
2023/03/21 00:26:26;;;;;;;13.20;8.88;;;;;;;12.07;57.47;101089.66;685825;28;1043;-80
2023/03/21 00:26:46;;;;;;;13.10;8.68;;;;;;;12.07;57.56;101094.88;690886;28;1188;-79
2023/03/21 00:27:07;;;;;;;12.70;8.60;;;;;;;12.03;57.56;101081.69;688429;28;994;-78
2023/03/21 00:27:28;;;;;;;14.50;8.70;;;;;;;12.04;57.46;101084.34;683015;28;1248;-79
2023/03/21 00:27:49;;;;;;;14.07;8.70;;;;;;;12.04;57.44;101084.34;685746;28;1392;-79
2023/03/21 00:28:10;;;;;;;13.60;8.70;;;;;;;12.09;57.41;101091.44;683030;28;1170;-80
2023/03/21 00:28:30;;;;;;;12.70;8.80;;;;;;;12.05;57.67;101080.88;685897;28;799;-79
2023/03/21 00:28:51;;;;;;;14.35;9.27;;;;;;;12.03;57.38;101079.97;685712;28;1203;-80
2023/03/21 00:29:14;;;;;;;17.85;10.05;;;;;;;12.03;57.34;101084.31;685795;28;1007;-80
2023/03/21 00:29:35;;;;;;;17.60;10.05;;;;;;;12.06;57.23;101082.66;688451;28;1089;-80
2023/03/21 00:29:55;;;;;;;14.37;9.30;;;;;;;12.09;57.58;101091.44;685695;28;1162;-80
2023/03/21 00:30:16;;;;;;;15.85;9.60;;;;;;;12.02;57.32;101078.19;688209;28;1088;-79
2023/03/21 00:30:39;;;;;;;17.05;9.85;;;;;;;12.05;57.62;101080.88;685799;28;1337;-80
2023/03/21 00:31:00;;;;;;;14.88;10.02;;;;;;;12.13;57.52;101093.28;685583;28;1398;-80
2023/03/21 00:31:20;;;;;;;15.95;9.90;;;;;;;12.04;57.43;101076.50;685629;28;1461;-80
2023/03/21 00:31:43;;;;;;;16.90;10.10;;;;;;;12.05;57.55;101085.25;683146;29;1130;-79
2023/03/21 00:32:04;;;;;;;18.50;9.95;;;;;;;12.12;57.52;101089.81;685805;28;1103;-80
2023/03/21 00:32:25;;;;;;;15.80;9.60;;;;;;;12.07;57.39;101081.81;688144;28;1164;-79
2023/03/21 00:32:46;;;;;;;15.40;9.60;;;;;;;12.07;57.30;101089.66;688445;28;1087;-79
2023/03/21 00:33:09;;;;;;;14.45;9.90;;;;;;;12.14;57.37;101097.66;685575;28;1246;-79
2023/03/21 00:33:30;;;;;;;17.08;10.38;;;;;;;12.14;57.51;101092.44;688483;28;1172;-80
2023/03/21 00:33:51;;;;;;;16.85;10.57;;;;;;;12.14;57.28;101087.22;687888;28;1444;-80
2023/03/21 00:34:11;;;;;;;18.88;10.65;;;;;;;12.15;57.36;101096.81;685610;28;1287;-79
2023/03/21 00:34:32;;;;;;;16.33;10.35;;;;;;;12.13;57.46;101078.50;683023;29;1035;-80
2023/03/21 00:34:53;;;;;;;15.83;9.83;;;;;;;12.18;57.12;101091.69;683122;29;1267;-79
2023/03/21 00:35:13;;;;;;;14.30;9.97;;;;;;;12.18;57.39;101102.16;684845;28;1261;-79
2023/03/21 00:35:34;;;;;;;16.00;9.98;;;;;;;12.16;56.88;101082.94;683193;29;1053;-79
2023/03/21 00:35:55;;;;;;;17.70;10.38;;;;;;;12.16;57.29;101088.16;683101;29;1198;-80
2023/03/21 00:36:16;;;;;;;17.67;10.00;;;;;;;12.11;57.22;101081.91;685689;28;1174;-80
2023/03/21 00:36:36;;;;;;;19.63;10.20;;;;;;;12.13;57.26;101083.72;683098;29;1075;-79
2023/03/21 00:37:00;;;;;;;19.50;9.80;;;;;;;12.16;57.21;101088.16;685496;28;1961;-78
2023/03/21 00:37:21;;;;;;;20.43;10.60;;;;;;;12.14;57.10;101080.25;688282;28;1226;-79
2023/03/21 00:37:41;;;;;;;19.40;10.85;;;;;;;12.13;57.10;101077.59;685700;28;1209;-79
2023/03/21 00:38:04;;;;;;;19.25;10.68;;;;;;;12.14;57.18;101082.88;688301;28;1394;-80
2023/03/21 00:38:27;;;;;;;16.60;10.20;;;;;;;12.17;57.18;101093.41;683145;29;1089;-79
2023/03/21 00:38:47;;;;;;;17.40;10.05;;;;;;;12.20;57.04;101090.00;685713;28;1070;-79
2023/03/21 00:39:08;;;;;;;17.33;10.00;;;;;;;12.17;57.12;101076.84;685716;28;972;-80
2023/03/21 00:39:29;;;;;;;17.30;9.93;;;;;;;12.16;57.21;101083.78;688353;28;1154;-79
2023/03/21 00:39:49;;;;;;;18.17;10.60;;;;;;;12.10;57.25;101078.38;691142;28;1250;-80
2023/03/21 00:40:11;;;;;;;19.83;11.03;;;;;;;12.21;57.14;101086.53;688406;28;1144;-80
2023/03/21 00:40:31;;;;;;;16.83;10.75;;;;;;;12.15;57.03;101076.78;685746;28;1302;-80
2023/03/21 00:40:52;;;;;;;15.63;10.05;;;;;;;12.12;57.12;101067.97;688445;28;1186;-81
2023/03/21 00:41:15;;;;;;;14.33;9.80;;;;;;;12.18;57.03;101081.22;688320;28;1197;-80
2023/03/21 00:41:36;;;;;;;15.52;9.40;;;;;;;12.16;57.05;101078.56;683208;28;1303;-79
2023/03/21 00:41:57;;;;;;;15.60;9.60;;;;;;;12.16;57.06;101067.22;680326;29;1174;-79
2023/03/21 00:42:18;;;;;;;15.90;9.70;;;;;;;12.21;57.21;101076.06;682893;29;1323;-79
2023/03/21 00:42:39;;;;;;;14.45;9.70;;;;;;;12.24;57.08;101084.00;683025;29;995;-80
2023/03/21 00:42:59;;;;;;;13.90;9.38;;;;;;;12.19;56.73;101068.16;683084;29;1042;-80
2023/03/21 00:43:28;;;;;;;12.37;8.93;;;;;;;12.18;56.91;101060.28;680340;29;1215;-80
2023/03/21 00:43:50;;;;;;;13.45;9.15;;;;;;;12.18;57.07;101070.75;680364;29;1980;-80
2023/03/21 00:44:14;;;;;;;15.30;9.80;;;;;;;12.23;57.20;101074.38;685549;28;1158;-79
2023/03/21 00:44:35;;;;;;;16.83;9.70;;;;;;;12.17;56.90;101063.75;685697;28;1049;-79
2023/03/21 00:44:56;;;;;;;17.20;9.80;;;;;;;12.20;57.06;101075.19;683011;29;1255;-79
2023/03/21 00:45:18;;;;;;;14.02;9.48;;;;;;;12.18;56.97;101065.53;685588;28;962;-80
2023/03/21 00:45:38;;;;;;;14.40;9.70;;;;;;;12.16;57.05;101064.59;685728;28;1190;-79
2023/03/21 00:46:08;;;;;;;15.73;9.75;;;;;;;12.23;57.27;101076.97;685842;28;917;-79
2023/03/21 00:46:29;;;;;;;15.73;9.60;;;;;;;12.22;57.18;101071.72;685667;28;1056;-79
2023/03/21 00:46:49;;;;;;;14.93;9.27;;;;;;;12.22;57.12;101087.44;688140;28;1049;-80
2023/03/21 00:47:11;;;;;;;15.38;9.77;;;;;;;12.12;56.98;101052.28;685664;28;1204;-80
2023/03/21 00:47:32;;;;;;;16.92;10.20;;;;;;;12.17;57.35;101069.00;688499;28;871;-80
2023/03/21 00:47:52;;;;;;;16.73;10.17;;;;;;;12.21;57.11;101086.53;688395;28;1223;-80
2023/03/21 00:48:13;;;;;;;16.55;9.50;;;;;;;12.21;57.37;101076.06;690916;28;1066;-80
2023/03/21 00:48:35;;;;;;;14.63;9.40;;;;;;;12.19;57.09;101068.16;683043;29;1395;-79
2023/03/21 00:48:55;;;;;;;12.85;9.00;;;;;;;12.15;57.25;101055.88;688173;28;1439;-80
2023/03/21 00:49:16;;;;;;;16.02;9.48;;;;;;;12.23;57.25;101071.75;685546;28;1130;-79
2023/03/21 00:49:37;;;;;;;16.50;9.65;;;;;;;12.14;56.91;101050.59;685790;28;1200;-79
2023/03/21 00:49:58;;;;;;;16.83;10.10;;;;;;;12.15;57.28;101062.81;685594;28;1270;-80
2023/03/21 00:50:18;;;;;;;14.00;9.63;;;;;;;12.20;57.14;101067.34;680253;29;1221;-80
2023/03/21 00:50:41;;;;;;;14.45;9.32;;;;;;;12.21;57.04;101062.97;683069;29;1102;-80
2023/03/21 00:51:01;;;;;;;15.25;9.25;;;;;;;12.23;57.21;101074.38;683099;29;1010;-80
2023/03/21 00:51:25;;;;;;;16.38;9.15;;;;;;;12.18;57.10;101070.75;683038;29;1192;-80
2023/03/21 00:51:50;;;;;;;16.63;8.98;;;;;;;12.19;57.08;101067.28;683025;28;1058;-80
2023/03/21 00:52:10;;;;;;;16.15;9.60;;;;;;;12.15;57.18;101048.00;688231;28;1377;-80
2023/03/21 00:52:31;;;;;;;14.70;9.80;;;;;;;12.21;57.23;101065.59;682999;29;1217;-79
2023/03/21 00:52:51;;;;;;;12.83;9.60;;;;;;;12.16;57.16;101060.25;685713;28;1087;-80
2023/03/21 00:53:13;;;;;;;13.75;9.90;;;;;;;12.15;57.20;101055.88;682917;29;1214;-80
2023/03/21 00:53:34;;;;;;;13.57;9.85;;;;;;;12.17;57.25;101055.91;683154;29;1033;-80
2023/03/21 00:53:56;;;;;;;14.73;9.40;;;;;;;12.16;57.08;101057.63;680160;29;1206;-80
2023/03/21 00:54:20;;;;;;;15.73;9.27;;;;;;;12.16;56.88;101057.63;682838;28;1276;-79
2023/03/21 00:54:46;;;;;;;15.60;9.50;;;;;;;12.25;57.01;101066.56;685788;28;1411;-80
2023/03/21 00:55:11;;;;;;;16.27;9.63;;;;;;;12.14;57.28;101054.09;685600;28;1130;-80
2023/03/21 00:55:32;;;;;;;16.17;9.32;;;;;;;12.12;57.28;101066.25;682982;28;1255;-80
2023/03/21 00:55:52;;;;;;;17.95;10.00;;;;;;;12.13;57.31;101054.03;685749;28;1220;-79
2023/03/21 00:56:13;;;;;;;15.97;9.67;;;;;;;12.25;57.25;101066.56;688173;28;1057;-80
2023/03/21 00:56:34;;;;;;;15.85;9.65;;;;;;;12.21;57.24;101060.34;688484;28;821;-79
2023/03/21 00:56:55;;;;;;;14.80;9.48;;;;;;;12.19;57.22;101056.81;688080;28;1919;-79
2023/03/21 00:57:17;;;;;;;15.95;9.60;;;;;;;12.19;57.31;101055.06;688388;28;1266;-80
2023/03/21 00:57:38;;;;;;;14.68;9.70;;;;;;;12.19;56.90;101057.69;688612;28;811;-80
2023/03/21 00:57:59;;;;;;;14.05;9.70;;;;;;;12.24;57.01;101070.94;685556;28;1315;-79
2023/03/21 00:58:20;;;;;;;14.75;10.05;;;;;;;12.22;56.89;101056.91;682904;28;1178;-80
2023/03/21 00:58:41;;;;;;;14.95;9.73;;;;;;;12.19;56.91;101056.81;683015;29;1417;-80
2023/03/21 00:59:01;;;;;;;14.73;9.45;;;;;;;12.14;57.19;101054.09;680209;29;1343;-80
2023/03/21 00:59:34;;;;;;;13.37;9.20;;;;;;;12.13;57.28;101048.81;685719;28;1186;-79
2023/03/21 00:59:56;;;;;;;13.30;9.10;;;;;;;12.14;57.11;101050.59;685657;28;2012;-79
2023/03/21 01:00:19;;;;;;;15.18;8.95;;;;;;;12.24;57.31;101056.94;682829;28;1113;-79
2023/03/21 01:00:40;;;;;;;16.08;9.13;;;;;;;12.22;57.06;101062.13;685614;28;1215;-80
2023/03/21 01:01:01;;;;;;;16.23;9.00;;;;;;;12.18;57.19;101052.44;683014;29;1379;-80
2023/03/21 01:01:25;;;;;;;14.48;9.27;;;;;;;12.24;56.97;101060.47;680234;29;978;-79
2023/03/21 01:01:45;;;;;;;13.88;9.23;;;;;;;12.16;57.15;101046.31;683089;29;1198;-80
2023/03/21 01:02:06;;;;;;;15.73;9.90;;;;;;;12.18;57.21;101050.69;682906;29;1125;-80
2023/03/21 01:02:27;;;;;;;15.15;9.68;;;;;;;12.23;56.78;101053.44;683042;29;1271;-80
2023/03/21 01:02:56;;;;;;;17.23;9.67;;;;;;;12.23;56.87;101048.19;683112;28;1241;-79
2023/03/21 01:03:17;;;;;;;18.75;9.52;;;;;;;12.29;56.80;101058.81;682874;28;1101;-80
2023/03/21 01:03:41;;;;;;;19.27;10.10;;;;;;;12.22;56.64;101046.44;685516;28;1241;-80
2023/03/21 01:04:09;;;;;;;14.93;9.70;;;;;;;12.29;57.00;101057.97;682988;29;1261;-80
2023/03/21 01:04:30;;;;;;;16.20;9.73;;;;;;;12.19;56.89;101041.13;683000;29;1124;-80
2023/03/21 01:04:51;;;;;;;16.88;9.90;;;;;;;12.15;57.02;101045.41;683063;29;1121;-79
2023/03/21 01:05:11;;;;;;;19.13;10.38;;;;;;;12.17;57.15;101042.84;680180;29;1070;-80
2023/03/21 01:06:18;;;;;;;14.02;9.23;;;;;;;12.18;56.67;101041.97;680228;29;1039;-80
2023/03/21 01:06:40;;;;;;;15.50;9.50;;;;;;;12.21;57.05;101049.91;685464;28;1248;-80
2023/03/21 01:07:01;;;;;;;15.82;8.90;;;;;;;12.26;57.04;101052.63;682870;29;1110;-80
2023/03/21 01:07:21;;;;;;;17.30;9.53;;;;;;;12.29;56.62;101052.72;685654;28;982;-80
2023/03/21 01:07:42;;;;;;;17.30;9.20;;;;;;;12.29;56.60;101050.09;685677;28;1010;-80
2023/03/21 01:08:20;;;;;;;15.98;9.38;;;;;;;12.28;56.82;101046.59;685602;28;1204;-79
2023/03/21 01:08:42;;;;;;;12.95;8.70;;;;;;;12.26;56.51;101043.06;688106;28;1115;-80
2023/03/21 01:09:04;;;;;;;13.00;8.50;;;;;;;12.29;56.47;101047.50;682882;29;1297;-80
2023/03/21 01:09:25;;;;;;;14.95;9.00;;;;;;;12.30;56.49;101044.03;685542;28;1563;-79
2023/03/21 01:09:46;;;;;;;14.40;8.65;;;;;;;12.26;56.37;101044.78;688328;28;1392;-80
2023/03/21 01:10:07;;;;;;;16.25;8.70;;;;;;;12.28;56.40;101046.59;685651;28;1119;-80
2023/03/21 01:10:27;;;;;;;15.30;8.75;;;;;;;12.27;56.79;101054.41;685647;28;1441;-80
2023/03/21 01:10:49;;;;;;;15.23;9.20;;;;;;;12.25;56.53;101040.41;685786;28;851;-79
2023/03/21 01:11:16;;;;;;;16.48;9.38;;;;;;;12.30;56.27;101050.13;685635;28;1197;-80
2023/03/21 01:11:38;;;;;;;18.05;9.30;;;;;;;12.28;56.20;101043.97;685616;28;1236;-79
2023/03/21 01:11:59;;;;;;;18.17;9.43;;;;;;;12.24;56.43;101041.25;688323;28;1101;-80
2023/03/21 01:12:20;;;;;;;16.90;9.55;;;;;;;12.27;56.44;101043.94;685408;28;1197;-79
2023/03/21 01:12:41;;;;;;;17.20;9.40;;;;;;;12.27;56.51;101044.81;680351;29;1190;-80
2023/03/21 01:13:01;;;;;;;17.43;9.13;;;;;;;12.27;56.20;101043.94;677981;29;1085;-80
2023/03/21 01:13:24;;;;;;;18.20;8.88;;;;;;;12.30;56.31;101057.97;677774;29;1107;-80
2023/03/21 01:13:45;;;;;;;17.08;8.90;;;;;;;12.31;55.94;101056.25;685610;28;1414;-79
2023/03/21 01:14:06;;;;;;;15.95;9.10;;;;;;;12.27;56.16;101038.69;682866;29;1046;-80
2023/03/21 01:14:26;;;;;;;14.57;9.20;;;;;;;12.26;56.24;101036.94;680376;29;1187;-79
2023/03/21 01:14:47;;;;;;;14.90;8.77;;;;;;;12.26;56.24;101039.53;680288;29;1071;-78
2023/03/21 01:15:08;;;;;;;13.77;8.40;;;;;;;12.26;56.26;101036.94;685529;28;1202;-80
2023/03/21 01:15:28;;;;;;;15.05;8.48;;;;;;;12.31;56.05;101038.81;685655;28;1227;-80
2023/03/21 01:15:52;;;;;;;15.88;8.98;;;;;;;12.36;56.02;101043.28;683054;29;1198;-80
2023/03/21 01:16:13;;;;;;;16.35;9.10;;;;;;;12.30;56.13;101047.50;685644;28;1238;-78
2023/03/21 01:16:34;;;;;;;13.95;8.82;;;;;;;12.25;55.66;101033.44;685674;28;1176;-80
2023/03/21 01:16:55;;;;;;;12.15;8.65;;;;;;;12.34;56.11;101045.84;688049;28;1927;-78
2023/03/21 01:17:16;;;;;;;15.27;8.87;;;;;;;12.30;55.89;101044.91;688431;28;1222;-80
2023/03/21 01:17:51;;;;;;;15.73;8.88;;;;;;;12.26;56.04;101043.06;685836;28;733;-80
2023/03/21 01:18:14;;;;;;;14.07;8.50;;;;;;;12.36;55.86;101053.75;682928;29;1150;-79
2023/03/21 01:18:36;;;;;;;13.05;8.55;;;;;;;12.33;56.02;101054.56;683159;29;867;-78
2023/03/21 01:18:58;;;;;;;12.60;8.90;;;;;;;12.26;55.95;101036.94;685750;28;1280;-79
2023/03/21 01:19:21;;;;;;;12.30;8.55;;;;;;;12.31;55.89;101045.78;683135;29;1014;-80
2023/03/21 01:19:42;;;;;;;13.80;9.00;;;;;;;12.31;56.15;101049.28;685930;28;835;-79
2023/03/21 01:20:05;;;;;;;17.00;9.20;;;;;;;12.30;55.70;101049.25;688415;28;1082;-78
2023/03/21 01:20:26;;;;;;;17.58;9.65;;;;;;;12.37;55.79;101050.28;691179;28;1020;-79
2023/03/21 01:20:47;;;;;;;17.73;9.48;;;;;;;12.30;55.56;101047.50;688660;28;786;-80
2023/03/21 01:21:11;;;;;;;16.17;9.25;;;;;;;12.27;55.84;101034.34;688500;28;1129;-79
2023/03/21 01:21:32;;;;;;;15.27;9.15;;;;;;;12.30;55.63;101041.41;685944;28;1443;-79
2023/03/21 01:21:53;;;;;;;14.10;8.57;;;;;;;12.29;55.72;101045.75;688561;28;1079;-80
2023/03/21 01:22:14;;;;;;;15.90;8.60;;;;;;;12.31;55.64;101040.56;685684;28;1329;-80
2023/03/21 01:22:35;;;;;;;17.65;8.80;;;;;;;12.27;55.74;101029.13;685532;28;1220;-79
2023/03/21 01:22:55;;;;;;;18.08;8.93;;;;;;;12.29;55.70;101037.88;685923;28;1081;-79
2023/03/21 01:23:16;;;;;;;18.93;9.23;;;;;;;12.38;55.82;101046.81;683046;29;1067;-80
2023/03/21 01:23:38;;;;;;;16.60;8.80;;;;;;;12.32;55.72;101038.00;683066;29;1155;-80
2023/03/21 01:24:00;;;;;;;15.27;9.07;;;;;;;12.31;55.72;101041.44;685589;28;1304;-80
2023/03/21 01:24:21;;;;;;;14.02;8.50;;;;;;;12.37;55.81;101050.28;682102;28;1151;-79
2023/03/21 01:24:41;;;;;;;14.27;8.48;;;;;;;12.32;55.96;101038.00;685716;28;1484;-80
2023/03/21 01:25:02;;;;;;;12.90;8.13;;;;;;;12.29;55.86;101040.50;685593;28;1313;-80
2023/03/21 01:25:23;;;;;;;12.18;8.70;;;;;;;12.30;55.77;101037.03;682990;29;1154;-80
2023/03/21 01:25:47;;;;;;;13.32;8.88;;;;;;;12.28;55.30;101030.03;685771;28;1232;-79
2023/03/21 01:26:17;;;;;;;14.77;8.68;;;;;;;12.33;55.88;101037.13;683000;29;1340;-80
2023/03/21 01:26:38;;;;;;;16.90;8.80;;;;;;;12.30;55.81;101039.66;683191;29;865;-80
2023/03/21 01:27:01;;;;;;;15.38;8.52;;;;;;;12.29;55.85;101037.88;680074;29;1219;-79
2023/03/21 01:27:21;;;;;;;15.77;9.00;;;;;;;12.36;55.55;101038.94;682753;28;1280;-79
2023/03/21 01:27:42;;;;;;;14.98;8.60;;;;;;;12.36;55.59;101048.53;683051;29;1285;-80
2023/03/21 01:28:04;;;;;;;15.80;8.85;;;;;;;12.28;55.66;101030.88;685581;28;1299;-80
2023/03/21 01:28:27;;;;;;;15.25;8.30;;;;;;;12.37;55.80;101045.06;685635;28;1156;-79
2023/03/21 01:28:47;;;;;;;15.82;8.85;;;;;;;12.30;55.64;101039.66;688357;28;835;-79
2023/03/21 01:29:08;;;;;;;16.00;8.67;;;;;;;12.33;55.74;101039.75;685480;28;1135;-80
2023/03/21 01:29:29;;;;;;;14.50;8.48;;;;;;;12.27;55.46;101034.34;688348;28;1096;-80
2023/03/21 01:29:51;;;;;;;13.35;7.90;;;;;;;12.31;55.60;101041.44;688422;28;855;-79
2023/03/21 01:30:12;;;;;;;12.90;7.78;;;;;;;12.28;55.56;101036.13;685385;28;1186;-80
2023/03/21 01:30:32;;;;;;;14.43;8.07;;;;;;;12.30;55.67;101037.03;683046;29;807;-80
2023/03/21 01:30:56;;;;;;;16.65;8.32;;;;;;;12.28;55.53;101038.75;685486;28;1402;-80
2023/03/21 01:31:17;;;;;;;16.33;8.20;;;;;;;12.28;55.67;101030.88;682719;28;1441;-80
2023/03/21 01:31:38;;;;;;;14.65;8.40;;;;;;;12.34;55.53;101049.38;680334;29;1033;-80
2023/03/21 01:32:00;;;;;;;14.70;9.05;;;;;;;12.31;55.24;101030.97;680370;29;1121;-80
2023/03/21 01:32:21;;;;;;;13.85;8.98;;;;;;;12.29;55.71;101030.03;682633;29;1362;-80
2023/03/21 01:32:41;;;;;;;13.90;9.20;;;;;;;12.29;55.46;101030.03;682798;28;1100;-80
2023/03/21 01:33:02;;;;;;;13.30;8.52;;;;;;;12.39;55.66;101038.13;688069;28;1141;-79
2023/03/21 01:33:23;;;;;;;13.55;8.63;;;;;;;12.31;55.59;101024.84;688356;28;1048;-80
2023/03/21 01:33:44;;;;;;;15.18;8.50;;;;;;;12.41;55.54;101044.31;690016;28;1192;-80
2023/03/21 01:34:05;;;;;;;13.35;8.05;;;;;;;12.37;55.50;101031.97;685474;28;1158;-80
2023/03/21 01:34:26;;;;;;;11.75;8.00;;;;;;;12.38;55.54;101041.59;685619;28;1012;-80
2023/03/21 01:34:47;;;;;;;10.55;8.13;;;;;;;12.34;55.47;101036.28;685515;28;1241;-80
2023/03/21 01:35:08;;;;;;;11.25;8.40;;;;;;;12.30;55.08;101034.41;685473;28;1135;-80
2023/03/21 01:35:28;;;;;;;14.23;8.47;;;;;;;12.33;55.35;101042.38;685526;28;1237;-80
2023/03/21 01:35:49;;;;;;;16.90;8.65;;;;;;;12.28;55.58;101030.03;682831;29;1234;-79
2023/03/21 01:36:16;;;;;;;17.08;8.93;;;;;;;12.35;55.34;101042.38;680229;29;1293;-80
2023/03/21 01:36:36;;;;;;;14.48;8.93;;;;;;;12.30;55.35;101034.41;680277;29;1031;-80
2023/03/21 01:37:00;;;;;;;14.15;8.40;;;;;;;12.36;55.36;101040.66;682656;29;1931;-80
2023/03/21 01:37:21;;;;;;;15.30;8.20;;;;;;;12.37;55.23;101039.81;682766;29;1222;-80
2023/03/21 01:37:44;;;;;;;15.77;7.95;;;;;;;12.37;55.60;101035.47;682882;29;1259;-80
2023/03/21 01:38:05;;;;;;;15.73;8.00;;;;;;;12.30;55.12;101028.31;682831;29;1069;-80
2023/03/21 01:38:26;;;;;;;16.42;8.35;;;;;;;12.30;55.18;101036.19;688284;28;1400;-80
2023/03/21 01:38:47;;;;;;;13.80;8.23;;;;;;;12.29;55.38;101030.03;682838;29;1196;-79
2023/03/21 01:39:07;;;;;;;14.35;8.77;;;;;;;12.31;55.49;101025.72;680098;29;1078;-80
2023/03/21 01:39:28;;;;;;;13.55;9.10;;;;;;;12.31;55.19;101030.97;682862;29;1334;-79
2023/03/21 01:39:49;;;;;;;15.80;9.27;;;;;;;12.38;55.16;101036.34;685492;28;1172;-80
2023/03/21 01:40:19;;;;;;;16.35;9.02;;;;;;;12.30;55.10;101018.72;682792;28;1163;-80
2023/03/21 01:40:43;;;;;;;14.40;8.20;;;;;;;12.29;55.40;101022.19;685447;28;1237;-80
2023/03/21 01:41:30;;;;;;;12.93;8.23;;;;;;;12.38;55.43;101039.88;682876;29;1014;-79
2023/03/21 01:41:51;;;;;;;13.52;8.00;;;;;;;12.30;55.03;101023.09;682889;29;1247;-81
2023/03/21 01:42:18;;;;;;;12.95;8.10;;;;;;;12.30;55.19;101021.34;680149;29;1183;-80
2023/03/21 01:42:40;;;;;;;11.52;7.88;;;;;;;12.33;55.20;101029.28;682823;29;1313;-80
2023/03/21 01:43:02;;;;;;;12.77;8.00;;;;;;;12.37;55.39;101037.19;685454;28;1225;-80
2023/03/21 01:43:31;;;;;;;13.10;8.02;;;;;;;12.39;55.13;101043.34;682794;28;1541;-80
2023/03/21 01:43:54;;;;;;;14.45;8.52;;;;;;;12.40;55.02;101038.16;680197;29;1278;-80
2023/03/21 01:44:21;;;;;;;15.77;8.63;;;;;;;12.32;55.04;101021.38;682603;29;1410;-80
2023/03/21 01:45:03;;;;;;;16.63;8.50;;;;;;;12.39;55.16;101039.00;685457;28;1076;-80